Time;durP1;ratioP1;P1;durP2;ratioP2;P2;SDS_P1;SDS_P2;PMS_P1;PMS_P2;Temp;Humidity;BMP_temperature;BMP_pressure;BME280_temperature;BME280_humidity;BME280_pressure;Samples;Min_cycle;Max_cycle;Signal;HPM_P1;HPM_P2
2023/03/21 00:00:54;0.00;0.00;0.62;0.00;0.00;0.62;3.67;2.77;;;24.60;24.50;;;;;;2259993;61;20428;-51
2023/03/21 00:03:42;0.00;0.00;0.62;0.00;0.00;0.62;4.07;2.80;;;24.60;24.50;;;;;;2259421;61;20365;-54
2023/03/21 00:06:27;0.00;0.00;0.62;0.00;0.00;0.62;2.80;2.30;;;24.60;24.50;;;;;;2260073;61;20385;-54
2023/03/21 00:09:11;0.00;0.00;0.62;0.00;0.00;0.62;3.80;3.03;;;24.70;24.60;;;;;;2259816;61;20404;-56
2023/03/21 00:12:00;0.00;0.00;0.62;0.00;0.00;0.62;2.73;2.43;;;24.60;24.50;;;;;;2259884;61;20364;-55
2023/03/21 00:14:45;0.00;0.00;0.62;0.00;0.00;0.62;3.13;2.53;;;24.60;24.50;;;;;;2259951;61;20380;-53
2023/03/21 00:17:31;0.00;0.00;0.62;0.00;0.00;0.62;2.90;2.40;;;24.60;24.50;;;;;;2260042;61;20389;-55
2023/03/21 00:20:18;0.00;0.00;0.62;0.00;0.00;0.62;2.90;2.37;;;24.60;24.50;;;;;;2259154;61;20909;-54
2023/03/21 00:23:02;0.00;0.00;0.62;0.00;0.00;0.62;3.23;2.40;;;24.60;24.60;;;;;;2260115;61;20404;-51
2023/03/21 00:25:47;0.00;0.00;0.62;0.00;0.00;0.62;2.97;2.57;;;24.60;24.60;;;;;;2259624;61;20431;-58
2023/03/21 00:28:31;0.00;0.00;0.62;0.00;0.00;0.62;2.97;2.50;;;24.60;24.60;;;;;;2259839;61;20761;-60
2023/03/21 00:31:16;0.00;0.00;0.62;0.00;0.00;0.62;2.70;2.30;;;24.60;24.50;;;;;;2259607;61;20364;-54
2023/03/21 00:34:01;0.00;0.00;0.62;0.00;0.00;0.62;3.27;2.10;;;24.60;24.50;;;;;;2259405;61;20364;-51
2023/03/21 00:36:50;0.00;0.00;0.62;0.00;0.00;0.62;3.50;2.70;;;24.60;24.60;;;;;;2259689;61;20368;-53
2023/03/21 00:39:35;0.00;0.00;0.62;0.00;0.00;0.62;3.83;2.70;;;24.60;24.60;;;;;;2259817;61;20395;-53
2023/03/21 00:42:20;0.00;0.00;0.62;0.00;0.00;0.62;3.27;2.67;;;24.60;24.60;;;;;;2259487;61;20392;-54
2023/03/21 00:45:09;0.00;0.00;0.62;0.00;0.00;0.62;3.57;2.97;;;24.60;24.60;;;;;;2259917;61;20397;-53
2023/03/21 00:47:54;0.00;0.00;0.62;0.00;0.00;0.62;2.67;2.30;;;24.60;24.60;;;;;;2259072;61;20466;-52
2023/03/21 00:50:40;0.00;0.00;0.62;0.00;0.00;0.62;2.83;2.20;;;24.60;24.60;;;;;;2259343;61;20404;-54
2023/03/21 00:53:27;0.00;0.00;0.62;0.00;0.00;0.62;2.50;1.90;;;24.60;24.60;;;;;;2260127;61;20376;-52
2023/03/21 00:56:12;0.00;0.00;0.62;0.00;0.00;0.62;3.50;2.87;;;24.60;24.60;;;;;;2256121;61;20434;-53
2023/03/21 00:58:57;0.00;0.00;0.62;0.00;0.00;0.62;3.07;2.20;;;24.60;24.60;;;;;;2259314;61;20451;-51
2023/03/21 01:01:42;0.00;0.00;0.62;0.00;0.00;0.62;2.50;2.10;;;24.60;24.60;;;;;;2259891;61;20380;-52
2023/03/21 01:04:27;0.00;0.00;0.62;0.00;0.00;0.62;3.17;2.27;;;24.60;24.60;;;;;;2259324;61;20403;-52
2023/03/21 01:07:12;0.00;0.00;0.62;0.00;0.00;0.62;2.63;2.20;;;24.60;24.60;;;;;;2260185;61;20345;-52
2023/03/21 01:10:00;0.00;0.00;0.62;0.00;0.00;0.62;2.53;2.30;;;24.60;24.60;;;;;;2258725;61;20407;-51
2023/03/21 01:12:45;0.00;0.00;0.62;0.00;0.00;0.62;2.70;1.97;;;24.50;24.60;;;;;;2260183;61;20400;-55
2023/03/21 01:15:29;0.00;0.00;0.62;0.00;0.00;0.62;2.40;2.10;;;24.60;24.60;;;;;;2259695;61;20515;-51
2023/03/21 01:18:17;0.00;0.00;0.62;0.00;0.00;0.62;2.90;2.30;;;24.60;24.60;;;;;;2259096;61;20423;-53
2023/03/21 01:21:08;0.00;0.00;0.62;0.00;0.00;0.62;2.70;2.10;;;24.60;24.60;;;;;;2259839;61;20411;-51
2023/03/21 01:23:53;0.00;0.00;0.62;0.00;0.00;0.62;2.37;2.03;;;24.60;24.60;;;;;;2259492;61;20362;-55
2023/03/21 01:26:40;0.00;0.00;0.62;0.00;0.00;0.62;3.13;2.30;;;24.50;24.60;;;;;;2259018;61;20408;-53
2023/03/21 01:29:25;0.00;0.00;0.62;0.00;0.00;0.62;2.70;2.23;;;24.50;24.60;;;;;;2259638;61;20392;-51
2023/03/21 01:32:10;0.00;0.00;0.62;0.00;0.00;0.62;2.93;2.23;;;24.50;24.60;;;;;;2259193;61;20933;-52
2023/03/21 01:34:55;0.00;0.00;0.62;0.00;0.00;0.62;2.80;2.00;;;24.50;24.60;;;;;;2259436;61;20789;-56
2023/03/21 01:37:42;0.00;0.00;0.62;0.00;0.00;0.62;3.90;2.00;;;24.50;24.60;;;;;;2259429;61;20420;-52
2023/03/21 01:40:29;0.00;0.00;0.62;0.00;0.00;0.62;2.10;1.90;;;24.50;24.60;;;;;;2258946;61;20372;-55
2023/03/21 01:43:29;0.00;0.00;0.62;0.00;0.00;0.62;2.57;1.80;;;24.50;24.60;;;;;;2259963;61;20392;-53
2023/03/21 01:46:34;0.00;0.00;0.62;0.00;0.00;0.62;3.23;2.37;;;24.50;24.60;;;;;;2260328;61;20829;-54
2023/03/21 01:49:55;0.00;0.00;0.62;0.00;0.00;0.62;2.70;2.13;;;24.50;24.60;;;;;;2260238;61;20364;-55
2023/03/21 01:52:46;0.00;0.00;0.62;0.00;0.00;0.62;2.10;1.60;;;24.50;24.60;;;;;;2260146;61;20435;-58
2023/03/21 01:55:36;0.00;0.00;0.62;0.00;0.00;0.62;2.27;1.87;;;24.50;24.70;;;;;;2259478;61;21032;-50
2023/03/21 01:58:30;0.00;0.00;0.62;0.00;0.00;0.62;2.40;1.70;;;24.40;24.60;;;;;;2260085;61;20964;-55
2023/03/21 02:01:23;0.00;0.00;0.62;0.00;0.00;0.62;2.10;1.40;;;24.40;24.60;;;;;;2260128;61;20373;-52
2023/03/21 02:04:12;0.00;0.00;0.62;0.00;0.00;0.62;2.03;1.70;;;24.40;24.60;;;;;;2259785;61;20878;-55
2023/03/21 02:07:11;0.00;0.00;0.62;0.00;0.00;0.62;2.60;1.70;;;24.50;24.60;;;;;;2259936;61;20787;-54
2023/03/21 02:10:10;0.00;0.00;0.62;0.00;0.00;0.62;2.37;1.70;;;24.40;24.60;;;;;;2259131;61;20365;-54
2023/03/21 02:13:08;0.00;0.00;0.62;0.00;0.00;0.62;2.37;1.67;;;24.40;24.60;;;;;;2257078;61;20365;-52
2023/03/21 02:16:00;0.00;0.00;0.62;0.00;0.00;0.62;2.73;1.90;;;24.50;24.70;;;;;;2257229;61;20792;-53
2023/03/21 02:18:59;0.00;0.00;0.62;0.00;0.00;0.62;2.20;1.67;;;24.40;24.60;;;;;;2256552;61;20392;-54
2023/03/21 02:22:33;0.00;0.00;0.62;0.00;0.00;0.62;2.70;1.97;;;24.40;24.60;;;;;;2260508;61;20934;-50
2023/03/21 02:25:56;0.00;0.00;0.62;0.00;0.00;0.62;1.80;1.27;;;24.40;24.60;;;;;;2239812;61;20480;-64
2023/03/21 02:28:46;0.00;0.00;0.62;0.00;0.00;0.62;2.07;1.77;;;24.40;24.60;;;;;;2250214;61;20381;-53
2023/03/21 02:31:41;0.00;0.00;0.62;0.00;0.00;0.62;2.17;1.87;;;24.40;24.60;;;;;;2259451;61;20361;-56
2023/03/21 02:34:54;0.00;0.00;0.62;0.00;0.00;0.62;2.40;1.77;;;24.40;24.60;;;;;;2257174;61;20365;-52
2023/03/21 02:37:47;0.00;0.00;0.62;0.00;0.00;0.62;2.57;1.63;;;24.40;24.70;;;;;;2243600;61;20392;-54
2023/03/21 02:40:39;0.00;0.00;0.62;0.00;0.00;0.62;2.33;1.60;;;24.40;24.70;;;;;;2256152;61;20905;-58
2023/03/21 02:43:36;0.00;0.00;0.62;0.00;0.00;0.62;2.57;1.90;;;24.40;24.70;;;;;;2259904;61;20357;-54
2023/03/21 02:46:28;0.00;0.00;0.62;0.00;0.00;0.62;2.00;1.60;;;24.40;24.70;;;;;;2259286;61;20471;-54
2023/03/21 02:49:23;0.00;0.00;0.62;0.00;0.00;0.62;2.40;1.70;;;24.40;24.70;;;;;;2256783;61;20346;-55
2023/03/21 02:52:12;0.00;0.00;0.62;0.00;0.00;0.62;1.90;1.60;;;24.40;24.70;;;;;;2260503;61;20358;-51
2023/03/21 02:55:03;0.00;0.00;0.62;0.00;0.00;0.62;1.87;1.60;;;24.40;24.70;;;;;;2256353;61;20393;-52
2023/03/21 02:57:55;0.00;0.00;0.62;0.00;0.00;0.62;1.73;1.30;;;24.40;24.70;;;;;;2257158;61;20813;-58
2023/03/21 03:00:42;0.00;0.00;0.62;0.00;0.00;0.62;2.37;1.30;;;24.40;24.70;;;;;;2256645;61;20384;-50
2023/03/21 03:03:28;0.00;0.00;0.62;0.00;0.00;0.62;2.70;1.50;;;24.40;24.70;;;;;;2259727;61;20369;-59
2023/03/21 03:06:20;0.00;0.00;0.62;0.00;0.00;0.62;2.13;1.60;;;24.40;24.70;;;;;;2260359;61;20436;-59
2023/03/21 03:09:28;0.00;0.00;0.62;0.00;0.00;0.62;2.27;1.40;;;24.40;24.70;;;;;;2259322;61;20361;-52
2023/03/21 03:12:25;0.00;0.00;0.62;0.00;0.00;0.62;2.10;1.40;;;24.40;24.70;;;;;;2260338;61;20361;-54
2023/03/21 03:15:25;0.00;0.00;0.62;0.00;0.00;0.62;2.00;1.63;;;24.40;24.70;;;;;;2256937;61;20440;-53
2023/03/21 03:18:15;0.00;0.00;0.62;0.00;0.00;0.62;1.87;1.50;;;24.40;24.70;;;;;;2259492;61;20388;-55
2023/03/21 03:21:08;0.00;0.00;0.62;0.00;0.00;0.62;2.27;1.70;;;24.40;24.70;;;;;;2259801;61;20767;-50
2023/03/21 03:23:56;0.00;0.00;0.62;0.00;0.00;0.62;2.50;1.73;;;24.30;24.60;;;;;;2259360;61;20928;-50
2023/03/21 03:26:48;0.00;0.00;0.62;0.00;0.00;0.62;1.83;1.30;;;24.40;24.70;;;;;;2257209;61;20519;-52
2023/03/21 03:29:40;0.00;0.00;0.62;0.00;0.00;0.62;1.93;1.37;;;24.30;24.60;;;;;;2256807;61;20365;-53
2023/03/21 03:32:33;0.00;0.00;0.62;0.00;0.00;0.62;2.10;1.33;;;24.40;24.70;;;;;;2259459;61;20925;-53
2023/03/21 03:35:21;0.00;0.00;0.62;0.00;0.00;0.62;1.90;1.40;;;24.30;24.60;;;;;;2260255;61;20384;-50
2023/03/21 03:38:08;0.00;0.00;0.62;0.00;0.00;0.62;1.60;1.10;;;24.30;24.70;;;;;;2259241;61;20925;-52
2023/03/21 03:40:57;0.00;0.00;0.62;0.00;0.00;0.62;2.10;1.50;;;24.40;24.70;;;;;;2256796;61;20364;-53
2023/03/21 03:44:00;0.00;0.00;0.62;0.00;0.00;0.62;2.00;1.33;;;24.30;24.70;;;;;;2256992;61;20377;-51
2023/03/21 03:46:57;0.00;0.00;0.62;0.00;0.00;0.62;1.90;1.30;;;24.30;24.70;;;;;;2256477;61;20371;-55
2023/03/21 03:49:47;0.00;0.00;0.62;0.00;0.00;0.62;2.00;1.40;;;24.30;24.70;;;;;;2260783;61;20710;-52
2023/03/21 03:52:36;0.00;0.00;0.62;0.00;0.00;0.62;1.80;1.30;;;24.30;24.70;;;;;;2264382;61;20410;-60
2023/03/21 03:55:33;0.00;0.00;0.62;0.00;0.00;0.62;1.97;1.37;;;24.30;24.70;;;;;;2260969;61;20392;-54
2023/03/21 03:58:23;0.00;0.00;0.62;0.00;0.00;0.62;2.10;1.37;;;24.30;25.20;;;;;;2260868;61;20966;-52
2023/03/21 04:01:08;0.00;0.00;0.62;0.00;0.00;0.62;1.87;1.40;;;24.30;24.70;;;;;;2260237;61;20834;-53
2023/03/21 04:03:54;0.00;0.00;0.62;0.00;0.00;0.62;2.07;1.50;;;24.30;25.20;;;;;;2260983;61;20414;-52
2023/03/21 04:06:40;0.00;0.00;0.62;0.00;0.00;0.62;1.93;1.20;;;24.30;24.70;;;;;;2261084;61;20854;-57
2023/03/21 04:09:29;0.00;0.00;0.62;0.00;0.00;0.62;2.00;1.37;;;24.30;24.70;;;;;;2260022;61;20359;-55
2023/03/21 04:12:14;0.00;0.00;0.62;0.00;0.00;0.62;2.27;1.40;;;24.30;24.70;;;;;;2261063;61;20357;-55
2023/03/21 04:15:06;0.00;0.00;0.62;0.00;0.00;0.62;1.73;1.37;;;24.30;24.70;;;;;;2260531;61;20384;-55
2023/03/21 04:17:51;0.00;0.00;0.62;0.00;0.00;0.62;1.90;1.33;;;24.30;24.70;;;;;;2261035;61;20513;-53
2023/03/21 04:20:37;0.00;0.00;0.62;0.00;0.00;0.62;1.67;1.30;;;24.30;24.70;;;;;;2263673;61;20380;-50
2023/03/21 04:23:22;0.00;0.00;0.62;0.00;0.00;0.62;1.43;1.07;;;24.30;24.70;;;;;;2263576;61;20614;-51
2023/03/21 04:26:08;0.00;0.00;0.62;0.00;0.00;0.62;1.60;1.27;;;24.30;24.70;;;;;;2260902;61;20387;-50
2023/03/21 04:28:59;0.00;0.00;0.62;0.00;0.00;0.62;1.70;1.00;;;24.30;24.70;;;;;;2260703;61;20376;-51
2023/03/21 04:32:16;0.00;0.00;0.62;0.00;0.00;0.62;2.30;1.37;;;24.30;24.80;;;;;;2263431;61;20360;-51
2023/03/21 04:35:03;0.00;0.00;0.62;0.00;0.00;0.62;2.00;1.67;;;24.30;24.70;;;;;;2260864;61;20803;-56
2023/03/21 04:37:50;0.00;0.00;0.62;0.00;0.00;0.62;1.90;1.30;;;24.30;24.70;;;;;;2262827;61;20391;-56
2023/03/21 04:40:35;0.00;0.00;0.62;0.00;0.00;0.62;1.70;1.10;;;24.30;24.70;;;;;;2260785;61;20408;-60
2023/03/21 04:43:20;0.00;0.00;0.62;0.00;0.00;0.62;1.80;1.10;;;24.30;24.70;;;;;;2263923;61;20396;-57
2023/03/21 04:46:06;0.00;0.00;0.62;0.00;0.00;0.62;2.00;1.33;;;24.30;24.70;;;;;;2260391;61;20384;-51
2023/03/21 04:48:51;0.00;0.00;0.62;0.00;0.00;0.62;1.97;1.27;;;24.30;24.70;;;;;;2260615;61;20452;-55
2023/03/21 04:51:37;0.00;0.00;0.62;0.00;0.00;0.62;1.50;0.90;;;24.30;24.80;;;;;;2260829;61;20360;-54
2023/03/21 04:54:27;0.00;0.00;0.62;0.00;0.00;0.62;2.33;1.10;;;24.30;24.80;;;;;;2260418;61;20769;-55
2023/03/21 04:57:12;0.00;0.00;0.62;0.00;0.00;0.62;1.70;1.20;;;24.30;24.80;;;;;;2264077;61;20399;-52
2023/03/21 04:59:58;0.00;0.00;0.62;0.00;0.00;0.62;1.80;1.27;;;24.30;24.80;;;;;;2259760;61;20446;-53
2023/03/21 05:02:43;0.00;0.00;0.62;0.00;0.00;0.62;1.67;1.20;;;24.20;24.70;;;;;;2260961;61;20360;-63
2023/03/21 05:05:28;0.00;0.00;0.62;0.00;0.00;0.62;1.93;1.20;;;24.30;24.80;;;;;;2264157;61;20751;-53
2023/03/21 05:08:13;0.00;0.00;0.62;0.00;0.00;0.62;1.80;1.20;;;24.20;24.70;;;;;;2263262;61;20356;-56
2023/03/21 05:10:59;0.00;0.00;0.62;0.00;0.00;0.62;1.40;1.00;;;24.20;24.70;;;;;;2263782;61;20360;-57
2023/03/21 05:13:45;0.00;0.00;0.62;0.00;0.00;0.62;1.70;1.30;;;24.30;24.80;;;;;;2260887;61;20393;-54
2023/03/21 05:16:30;0.00;0.00;0.62;0.00;0.00;0.62;1.90;1.40;;;24.20;24.70;;;;;;2264202;61;20430;-53
2023/03/21 05:19:16;0.00;0.00;0.62;0.00;0.00;0.62;1.53;1.00;;;24.20;24.70;;;;;;2260879;61;20391;-54
2023/03/21 05:22:04;0.00;0.00;0.62;0.00;0.00;0.62;1.50;0.90;;;24.30;24.80;;;;;;2260925;61;20419;-52
2023/03/21 05:24:50;0.00;0.00;0.62;0.00;0.00;0.62;1.73;1.30;;;24.20;24.70;;;;;;2261713;61;20920;-53
2023/03/21 05:27:53;0.00;0.00;0.62;0.00;0.00;0.62;1.80;1.27;;;24.30;24.80;;;;;;2261314;61;20792;-56
2023/03/21 05:30:41;0.00;0.00;0.62;0.00;0.00;0.62;1.63;1.00;;;24.20;24.70;;;;;;2260667;61;20368;-54
2023/03/21 05:33:26;0.00;0.00;0.62;0.00;0.00;0.62;1.50;1.00;;;24.20;24.70;;;;;;2261522;61;20371;-53
2023/03/21 05:36:11;0.00;0.00;0.62;0.00;0.00;0.62;1.63;1.13;;;24.20;24.70;;;;;;2261473;61;20421;-52
2023/03/21 05:38:57;0.00;0.00;0.62;0.00;0.00;0.62;1.47;1.07;;;24.20;24.70;;;;;;2261252;61;20422;-51
2023/03/21 05:41:42;0.00;0.00;0.62;0.00;0.00;0.62;1.93;1.27;;;24.20;24.70;;;;;;2261699;61;20899;-53
2023/03/21 05:44:28;0.00;0.00;0.62;0.00;0.00;0.62;1.43;0.90;;;24.20;24.70;;;;;;2260889;61;20399;-52
2023/03/21 05:47:15;0.00;0.00;0.62;0.00;0.00;0.62;2.07;1.13;;;24.20;24.70;;;;;;2261307;61;20448;-52
2023/03/21 05:50:04;0.00;0.00;0.62;0.00;0.00;0.62;1.67;1.00;;;24.20;24.80;;;;;;2261323;61;20936;-53
2023/03/21 05:52:50;0.00;0.00;0.62;0.00;0.00;0.62;1.70;1.00;;;24.20;24.80;;;;;;2263624;61;20372;-50
2023/03/21 05:55:35;0.00;0.00;0.62;0.00;0.00;0.62;2.37;1.00;;;24.20;24.80;;;;;;2261380;61;20403;-50
2023/03/21 05:58:20;0.00;0.00;0.62;0.00;0.00;0.62;1.40;0.80;;;24.20;24.80;;;;;;2261495;61;20384;-51
2023/03/21 06:01:09;0.00;0.00;0.62;0.00;0.00;0.62;1.40;0.80;;;24.20;24.80;;;;;;2260928;61;20363;-50
2023/03/21 06:03:57;0.00;0.00;0.62;0.00;0.00;0.62;1.80;1.00;;;24.20;24.80;;;;;;2261506;61;20390;-55
2023/03/21 06:06:44;0.00;0.00;0.62;0.00;0.00;0.62;1.67;0.80;;;24.20;24.80;;;;;;2260652;61;21197;-50
2023/03/21 06:09:29;0.00;0.00;0.62;0.00;0.00;0.62;1.73;1.33;;;24.20;24.80;;;;;;2263950;61;20979;-54
2023/03/21 06:12:18;0.00;0.00;0.62;0.00;0.00;0.62;1.47;0.90;;;24.20;24.80;;;;;;2261425;61;20834;-50
2023/03/21 06:15:25;0.00;0.00;0.62;0.00;0.00;0.62;1.60;1.00;;;24.20;24.80;;;;;;2260616;61;20535;-52
2023/03/21 06:18:17;0.00;0.00;0.62;0.00;0.00;0.62;1.70;1.00;;;24.20;24.80;;;;;;2261519;61;20387;-55
2023/03/21 06:21:23;0.00;0.00;0.62;0.00;0.00;0.62;1.80;1.20;;;24.20;24.80;;;;;;2260715;61;20418;-59
2023/03/21 06:24:09;0.00;0.00;0.62;0.00;0.00;0.62;1.63;1.33;;;24.20;24.80;;;;;;2261291;61;20368;-53
2023/03/21 06:26:54;0.00;0.00;0.62;0.00;0.00;0.62;1.90;1.23;;;24.20;24.80;;;;;;2261281;61;20885;-54
2023/03/21 06:29:40;0.00;0.00;0.62;0.00;0.00;0.62;1.40;0.87;;;24.20;24.80;;;;;;2260316;61;20857;-53
2023/03/21 06:32:25;0.00;0.00;0.62;0.00;0.00;0.62;1.50;1.13;;;24.20;24.80;;;;;;2264669;61;20776;-52
2023/03/21 06:35:16;0.00;0.00;0.62;0.00;0.00;0.62;1.53;1.07;;;24.20;24.80;;;;;;2261122;61;20383;-51
2023/03/21 06:38:01;0.00;0.00;0.62;0.00;0.00;0.62;1.87;1.30;;;24.20;24.80;;;;;;2264137;61;20415;-50
2023/03/21 06:40:49;0.00;0.00;0.62;0.00;0.00;0.62;1.70;1.30;;;24.20;24.80;;;;;;2261236;61;20435;-52
2023/03/21 06:43:35;0.00;0.00;0.62;0.00;0.00;0.62;1.60;1.07;;;24.20;24.80;;;;;;2260473;61;20915;-53
2023/03/21 06:46:21;0.00;0.00;0.62;0.00;0.00;0.62;1.80;1.50;;;24.20;24.80;;;;;;2261289;61;20939;-55
2023/03/21 06:49:06;0.00;0.00;0.62;0.00;0.00;0.62;2.70;1.80;;;24.20;24.80;;;;;;2260958;61;20943;-50
2023/03/21 06:51:53;0.00;0.00;0.62;0.00;0.00;0.62;2.13;1.33;;;24.20;24.80;;;;;;2260676;61;20364;-56
2023/03/21 06:54:39;0.00;0.00;0.62;0.00;0.00;0.62;1.60;1.20;;;24.20;24.80;;;;;;2261205;61;20368;-51
2023/03/21 06:57:28;0.00;0.00;0.62;0.00;0.00;0.62;2.57;1.87;;;24.20;24.80;;;;;;2264351;61;20398;-54
2023/03/21 07:00:14;0.00;0.00;0.62;0.00;0.00;0.62;2.00;1.50;;;24.20;24.80;;;;;;2260672;61;20383;-50
2023/03/21 07:03:03;0.00;0.00;0.62;0.00;0.00;0.62;2.03;1.53;;;24.20;24.80;;;;;;2264166;61;20423;-54
2023/03/21 07:05:48;0.00;0.00;0.62;0.00;0.00;0.62;2.20;1.40;;;24.20;24.80;;;;;;2263417;61;20845;-55
2023/03/21 07:08:37;0.00;0.00;0.62;0.00;0.00;0.62;2.83;1.87;;;24.20;24.80;;;;;;2261076;61;20441;-50
2023/03/21 07:11:23;0.00;0.00;0.62;0.00;0.00;0.62;2.50;1.50;;;24.20;24.80;;;;;;2261132;61;20368;-51
2023/03/21 07:14:08;0.00;0.00;0.62;0.00;0.00;0.62;2.10;1.53;;;24.20;25.00;;;;;;2260531;61;20399;-54
2023/03/21 07:16:53;0.00;0.00;0.62;0.00;0.00;0.62;2.97;1.70;;;24.20;24.90;;;;;;2261318;61;20450;-50
2023/03/21 07:19:37;0.00;0.00;0.62;0.00;0.00;0.62;2.27;1.70;;;24.20;24.80;;;;;;2260690;61;20439;-54
2023/03/21 07:22:22;0.00;0.00;0.62;0.00;0.00;0.62;2.57;1.73;;;24.20;24.90;;;;;;2261036;61;20449;-53
2023/03/21 07:25:09;0.00;0.00;0.62;0.00;0.00;0.62;2.60;2.20;;;24.20;24.80;;;;;;2264282;61;20852;-55
2023/03/21 07:27:56;0.00;0.00;0.62;0.00;0.00;0.62;2.27;1.63;;;24.20;24.90;;;;;;2260456;61;20415;-52
2023/03/21 07:30:41;0.00;0.00;0.62;0.00;0.00;0.62;2.10;1.40;;;24.20;24.90;;;;;;2260880;61;20511;-52
2023/03/21 07:33:26;0.00;0.00;0.62;0.00;0.00;0.62;2.83;2.03;;;24.20;24.90;;;;;;2264309;61;20881;-51
2023/03/21 07:36:16;0.00;0.00;0.62;0.00;0.00;0.62;1.97;1.50;;;24.20;24.90;;;;;;2257430;61;20944;-55
2023/03/21 07:39:00;0.00;0.00;0.62;0.00;0.00;0.62;2.57;1.93;;;24.20;24.90;;;;;;2259322;61;20409;-58
2023/03/21 07:41:46;0.00;0.00;0.62;0.00;0.00;0.62;2.40;2.20;;;24.20;24.90;;;;;;2260323;61;20890;-50
2023/03/21 07:44:42;0.00;0.00;0.62;0.00;0.00;0.62;2.13;1.70;;;24.20;24.90;;;;;;2259625;61;20385;-54
2023/03/21 07:47:28;0.00;0.00;0.62;0.00;0.00;0.62;3.00;2.20;;;24.10;24.80;;;;;;2260056;61;20877;-54
2023/03/21 07:50:13;0.00;0.00;0.62;0.00;0.00;0.62;3.23;2.03;;;24.10;24.80;;;;;;2259387;61;20373;-53
2023/03/21 07:52:58;0.00;0.00;0.62;0.00;0.00;0.62;2.83;1.93;;;24.10;24.80;;;;;;2260362;61;20361;-52
2023/03/21 07:55:43;0.00;0.00;0.62;0.00;0.00;0.62;2.53;2.13;;;24.20;24.90;;;;;;2260290;61;20384;-54
2023/03/21 07:58:29;0.00;0.00;0.62;0.00;0.00;0.62;2.30;1.90;;;24.20;24.90;;;;;;2259562;61;20412;-54
2023/03/21 08:01:14;0.00;0.00;0.62;0.00;0.00;0.62;2.47;2.07;;;24.20;24.90;;;;;;2259820;61;20404;-57
2023/03/21 08:03:59;0.00;0.00;0.62;0.00;0.00;0.62;2.60;1.80;;;24.20;24.90;;;;;;2260100;61;20373;-56
2023/03/21 08:06:44;0.00;0.00;0.62;0.00;0.00;0.62;2.57;2.10;;;24.20;24.90;;;;;;2259855;61;20983;-53
2023/03/21 08:09:28;0.00;0.00;0.62;0.00;0.00;0.62;3.40;1.90;;;24.20;24.90;;;;;;2259853;61;20381;-52
2023/03/21 08:12:13;0.00;0.00;0.62;0.00;0.00;0.62;4.00;2.30;;;24.20;24.90;;;;;;2259546;61;20861;-53
2023/03/21 08:14:59;0.00;0.00;0.62;0.00;0.00;0.62;3.03;2.20;;;24.20;24.90;;;;;;2260141;61;20430;-51
2023/03/21 08:17:44;0.00;0.00;0.62;0.00;0.00;0.62;3.57;2.33;;;24.20;24.90;;;;;;2260308;61;20411;-55
2023/03/21 08:20:29;0.00;0.00;0.62;0.00;0.00;0.62;2.73;2.03;;;24.20;24.90;;;;;;2258810;61;20489;-53
2023/03/21 08:23:14;0.00;0.00;0.62;0.00;0.00;0.62;3.17;2.40;;;24.20;24.90;;;;;;2259602;61;20415;-55
2023/03/21 08:26:00;0.00;0.00;0.62;0.00;0.00;0.62;3.23;2.10;;;24.20;24.90;;;;;;2260034;61;20389;-54
2023/03/21 08:28:45;0.00;0.00;0.62;0.00;0.00;0.62;2.60;2.13;;;24.20;24.90;;;;;;2259328;61;20357;-56
2023/03/21 08:31:32;0.00;0.00;0.62;0.00;0.00;0.62;3.40;2.30;;;24.20;24.90;;;;;;2260002;61;20364;-54
2023/03/21 08:34:16;0.00;0.00;0.62;0.00;0.00;0.62;3.17;2.50;;;24.20;24.90;;;;;;2259443;61;20431;-56
2023/03/21 08:37:01;0.00;0.00;0.62;0.00;0.00;0.62;2.60;2.40;;;24.20;24.90;;;;;;2259779;61;20396;-54
2023/03/21 08:39:46;0.00;0.00;0.62;0.00;0.00;0.62;3.03;2.23;;;24.20;24.90;;;;;;2259648;61;20392;-53
2023/03/21 08:42:30;0.00;0.00;0.62;0.00;0.00;0.62;2.73;2.13;;;24.20;24.90;;;;;;2259336;61;20826;-54
2023/03/21 08:45:17;0.00;0.00;0.62;0.00;0.00;0.62;3.07;2.47;;;24.20;24.90;;;;;;2259978;61;20384;-52
2023/03/21 08:48:03;0.00;0.00;0.62;0.00;0.00;0.62;3.10;2.30;;;24.20;24.90;;;;;;2259805;61;20361;-64
2023/03/21 08:50:48;0.00;0.00;0.62;0.00;0.00;0.62;2.37;1.77;;;24.20;24.90;;;;;;2258737;61;20446;-54
2023/03/21 08:53:33;0.00;0.00;0.62;0.00;0.00;0.62;2.87;2.00;;;24.20;24.90;;;;;;2259757;61;20863;-56
2023/03/21 08:56:18;0.00;0.00;0.62;0.00;0.00;0.62;3.20;2.27;;;24.20;24.90;;;;;;2259470;61;20389;-56
2023/03/21 08:59:03;0.00;0.00;0.62;0.00;0.00;0.62;2.90;2.17;;;24.20;24.90;;;;;;2259506;61;20455;-53
2023/03/21 09:01:48;0.00;0.00;0.62;0.00;0.00;0.62;2.97;2.30;;;24.20;24.90;;;;;;2260106;61;20884;-54
2023/03/21 09:04:34;0.00;0.00;0.62;0.00;0.00;0.62;2.80;2.07;;;24.20;24.90;;;;;;2259166;61;20357;-54
2023/03/21 09:07:19;0.00;0.00;0.62;0.00;0.00;0.62;3.37;2.57;;;24.20;24.90;;;;;;2259333;61;20397;-54
2023/03/21 09:10:09;0.00;0.00;0.62;0.00;0.00;0.62;2.83;1.73;;;24.20;24.90;;;;;;2259305;61;20565;-54
2023/03/21 09:12:54;0.00;0.00;0.62;0.00;0.00;0.62;2.63;2.00;;;24.20;24.90;;;;;;2259383;61;20380;-54
2023/03/21 09:15:39;0.00;0.00;0.62;0.00;0.00;0.62;4.17;2.37;;;24.20;24.90;;;;;;2260032;61;20420;-63
2023/03/21 09:18:44;0.00;0.00;0.62;0.00;0.00;0.62;3.60;2.33;;;24.20;24.90;;;;;;2256231;61;20531;-50
2023/03/21 09:21:30;0.00;0.00;0.62;0.00;0.00;0.62;2.93;2.13;;;24.20;24.90;;;;;;2259620;61;20379;-53
2023/03/21 09:24:16;0.00;0.00;0.62;0.00;0.00;0.62;2.83;2.10;;;24.20;24.90;;;;;;2259827;61;20364;-54
2023/03/21 09:27:02;0.00;0.00;0.62;0.00;0.00;0.62;2.70;2.30;;;24.20;24.90;;;;;;2259055;61;20664;-55
2023/03/21 09:29:47;0.00;0.00;0.62;0.00;0.00;0.62;3.10;2.67;;;24.20;24.90;;;;;;2259617;61;20385;-51
2023/03/21 09:32:32;0.00;0.00;0.62;0.00;0.00;0.62;3.37;2.60;;;24.20;24.90;;;;;;2259737;61;20360;-51
2023/03/21 09:35:19;0.00;0.00;0.62;0.00;0.00;0.62;3.50;2.30;;;24.20;24.90;;;;;;2259134;61;20381;-52
2023/03/21 09:38:05;0.00;0.00;0.62;0.00;0.00;0.62;2.60;2.00;;;24.20;24.90;;;;;;2259954;61;20473;-51
2023/03/21 09:41:06;0.00;0.00;0.62;0.00;0.00;0.62;3.40;2.50;;;24.20;24.90;;;;;;2258970;61;20365;-53
2023/03/21 09:44:10;0.00;0.00;0.62;0.00;0.00;0.62;4.37;2.27;;;24.20;24.90;;;;;;2259618;61;20356;-53
2023/03/21 09:47:04;0.00;0.00;0.62;0.00;0.00;0.62;2.37;1.70;;;24.20;25.00;;;;;;2259882;61;20430;-54
2023/03/21 09:49:53;0.00;0.00;0.62;0.00;0.00;0.62;3.23;2.60;;;24.20;24.90;;;;;;2258753;61;21149;-54
2023/03/21 09:52:46;0.00;0.00;0.62;0.00;0.00;0.62;3.47;2.70;;;24.20;24.90;;;;;;2259972;61;20399;-52
2023/03/21 09:55:36;0.00;0.00;0.62;0.00;0.00;0.62;3.57;2.30;;;24.20;24.90;;;;;;2259460;61;20393;-53
2023/03/21 09:58:27;0.00;0.00;0.62;0.00;0.00;0.62;3.10;2.47;;;24.20;24.90;;;;;;2259956;61;20797;-58
2023/03/21 10:01:26;0.00;0.00;0.62;0.00;0.00;0.62;3.00;2.30;;;24.20;25.00;;;;;;2259526;61;20408;-58
2023/03/21 10:04:14;0.00;0.00;0.62;0.00;0.00;0.62;2.70;1.77;;;24.20;24.90;;;;;;2259994;61;20411;-55
2023/03/21 10:07:02;0.00;0.00;0.62;0.00;0.00;0.62;2.83;2.10;;;24.20;24.90;;;;;;2260528;61;20373;-52
2023/03/21 10:09:50;0.00;0.00;0.62;0.00;0.00;0.62;3.00;2.50;;;24.20;24.90;;;;;;2260439;61;20361;-58
2023/03/21 10:12:37;0.00;0.00;0.62;0.00;0.00;0.62;3.73;2.50;;;24.20;24.90;;;;;;2260401;61;20373;-54
2023/03/21 10:15:24;0.00;0.00;0.62;0.00;0.00;0.62;2.63;2.20;;;24.20;24.90;;;;;;2260421;61;20925;-51
2023/03/21 10:18:16;0.00;0.00;0.62;0.00;0.00;0.62;3.50;2.40;;;24.20;24.90;;;;;;2259556;61;20511;-53
2023/03/21 10:21:03;0.00;0.00;0.62;0.00;0.00;0.62;2.87;2.10;;;24.20;24.90;;;;;;2260255;61;20460;-52
2023/03/21 10:23:50;0.00;0.00;0.62;0.00;0.00;0.62;2.17;1.90;;;24.20;24.90;;;;;;2260774;61;20827;-51
2023/03/21 10:26:35;0.00;0.00;0.62;0.00;0.00;0.62;2.90;2.03;;;24.20;24.90;;;;;;2259830;61;20795;-54
2023/03/21 10:29:26;0.00;0.00;0.62;0.00;0.00;0.62;3.03;2.10;;;24.20;24.90;;;;;;2260099;61;20407;-52
2023/03/21 10:32:14;0.00;0.00;0.62;0.00;0.00;0.62;2.90;2.33;;;24.20;24.90;;;;;;2260716;61;20368;-56
2023/03/21 10:35:00;0.00;0.00;0.62;0.00;0.00;0.62;2.10;1.70;;;24.20;24.90;;;;;;2260646;61;21067;-55
2023/03/21 10:37:46;0.00;0.00;0.62;0.00;0.00;0.62;2.27;1.77;;;24.20;24.90;;;;;;2260515;61;20365;-53
2023/03/21 10:40:30;0.00;0.00;0.62;0.00;0.00;0.62;3.33;2.13;;;24.20;24.90;;;;;;2259354;61;20361;-54
2023/03/21 10:43:29;0.00;0.00;0.62;0.00;0.00;0.62;2.53;1.97;;;24.20;24.90;;;;;;2260459;61;20439;-52
2023/03/21 10:46:22;0.00;0.00;0.62;0.00;0.00;0.62;2.37;1.80;;;24.20;24.90;;;;;;2259989;61;20421;-55
2023/03/21 10:49:07;0.00;0.00;0.62;0.00;0.00;0.62;3.00;2.40;;;24.20;24.90;;;;;;2259418;61;20403;-54
2023/03/21 10:51:57;0.00;0.00;0.62;0.00;0.00;0.62;2.47;1.93;;;24.20;24.90;;;;;;2260521;61;20397;-53
2023/03/21 10:54:42;0.00;0.00;0.62;0.00;0.00;0.62;2.30;1.90;;;24.20;24.90;;;;;;2259992;61;20361;-53
2023/03/21 10:57:26;0.00;0.00;0.62;0.00;0.00;0.62;3.03;1.90;;;24.20;24.90;;;;;;2260443;61;20356;-54
2023/03/21 11:00:19;0.00;0.00;0.62;0.00;0.00;0.62;2.83;2.07;;;24.20;24.90;;;;;;2260421;61;20889;-50
2023/03/21 11:03:19;0.00;0.00;0.62;0.00;0.00;0.62;2.67;2.20;;;24.20;24.90;;;;;;2259729;61;20435;-57
2023/03/21 11:06:10;0.00;0.00;0.62;0.00;0.00;0.62;2.00;1.70;;;24.20;24.90;;;;;;2260588;61;20823;-52